Time;durP1;ratioP1;P1;durP2;ratioP2;P2;SDS_P1;SDS_P2;PMS_P1;PMS_P2;Temp;Humidity;BMP_temperature;BMP_pressure;BME280_temperature;BME280_humidity;BME280_pressure;Samples;Min_cycle;Max_cycle;Signal;HPM_P1;HPM_P2
2022/06/05 00:01:39;;;;;;;6.43;5.83;;;;;;;15.82;72.37;100631.05;1626801;86;21476;-73
2022/06/05 00:04:47;;;;;;;6.40;5.70;;;;;;;15.82;72.72;100631.05;1621339;86;21309;-71
2022/06/05 00:07:41;;;;;;;6.47;5.80;;;;;;;15.81;73.00;100626.77;1626334;86;21977;-71
2022/06/05 00:10:29;;;;;;;6.33;5.70;;;;;;;15.78;73.05;100616.02;1631247;86;21101;-71
2022/06/05 00:13:21;;;;;;;7.20;5.73;;;;;;;15.78;73.03;100627.34;1636243;86;21280;-72
2022/06/05 00:15:49;;;;;;;6.17;5.58;;;;;;;15.78;73.08;100620.06;1626068;86;21390;-72
2022/06/05 00:18:16;;;;;;;7.10;5.67;;;;;;;15.80;73.17;100618.44;1639852;86;21028;-72
2022/06/05 00:20:44;;;;;;;6.80;5.73;;;;;;;15.80;73.25;100615.20;1631029;86;21870;-71
2022/06/05 00:23:11;;;;;;;6.33;5.67;;;;;;;15.81;73.41;100624.88;1636244;86;21359;-72
2022/06/05 00:25:46;;;;;;;5.73;5.13;;;;;;;15.79;73.60;100632.42;1606664;88;21349;-72
2022/06/05 00:28:37;;;;;;;7.83;5.70;;;;;;;15.80;73.76;100637.30;1638090;86;21288;-72
2022/06/05 00:31:41;;;;;;;6.80;5.67;;;;;;;15.81;73.87;100633.50;1561171;89;21738;-72
2022/06/05 00:34:08;;;;;;;6.43;5.03;;;;;;;15.83;73.99;100625.39;1627279;86;21229;-72
2022/06/05 00:37:04;;;;;;;7.10;5.50;;;;;;;15.85;74.19;100604.89;1631710;86;21114;-72
2022/06/05 00:39:56;;;;;;;6.23;5.63;;;;;;;15.85;74.38;100592.22;1616279;86;21328;-72
2022/06/05 00:42:25;;;;;;;8.25;5.60;;;;;;;15.87;74.61;100581.17;1598739;88;21317;-72
2022/06/05 00:44:55;;;;;;;6.23;5.63;;;;;;;15.91;74.73;100582.98;1623759;86;21131;-72
2022/06/05 00:47:30;;;;;;;6.13;5.40;;;;;;;15.97;74.78;100585.06;1643020;86;21578;-72
2022/06/05 00:50:22;;;;;;;6.63;5.37;;;;;;;16.02;74.77;100584.17;1640714;86;21307;-71
2022/06/05 00:52:53;;;;;;;6.05;5.37;;;;;;;16.05;74.73;100578.99;1641525;85;21348;-72
2022/06/05 00:55:20;;;;;;;5.87;5.25;;;;;;;16.09;74.59;100577.34;1623959;86;21947;-72
2022/06/05 00:57:47;;;;;;;7.60;6.00;;;;;;;16.12;74.43;100580.80;1622620;87;21053;-72
2022/06/05 01:00:19;;;;;;;7.20;5.70;;;;;;;16.15;74.14;100577.48;1623655;86;21428;-73
2022/06/05 01:02:53;;;;;;;6.47;5.80;;;;;;;16.18;73.85;100572.06;1622103;86;21929;-71
2022/06/05 01:05:20;;;;;;;;;;;;;;;16.19;73.49;100566.95;1601027;87;22531;-72
2022/06/05 01:07:47;;;;;;;6.60;5.47;;;;;;;16.20;73.30;100569.09;1623612;85;22686;-72
2022/06/05 01:10:13;;;;;;;6.23;5.63;;;;;;;16.20;72.99;100574.48;1618426;87;22033;-73
2022/06/05 01:13:25;;;;;;;5.80;5.10;;;;;;;16.21;72.58;100579.56;1621710;86;21238;-73
2022/06/05 01:16:24;;;;;;;6.10;5.50;;;;;;;16.23;72.16;100576.59;1589338;86;21375;-72
2022/06/05 01:19:37;;;;;;;6.87;5.40;;;;;;;16.24;71.73;100564.70;1594295;88;21520;-73
2022/06/05 01:22:45;;;;;;;6.97;5.87;;;;;;;16.27;71.20;100556.03;1622615;86;21382;-72
2022/06/05 01:25:45;;;;;;;5.97;5.37;;;;;;;16.29;70.72;100549.81;1568275;88;21483;-73
2022/06/05 01:28:17;;;;;;;8.47;5.50;;;;;;;16.32;70.37;100551.89;1614893;86;21344;-72
2022/06/05 01:31:06;;;;;;;6.87;5.85;;;;;;;16.35;70.36;100558.05;1622399;86;21316;-73
2022/06/05 01:33:33;;;;;;;6.27;5.30;;;;;;;16.38;70.43;100562.84;1623986;86;21086;-72
2022/06/05 01:36:23;;;;;;;5.20;4.70;;;;;;;16.40;70.26;100556.63;1617916;85;21445;-73
2022/06/05 01:39:03;;;;;;;5.80;5.00;;;;;;;16.41;69.87;100561.70;1622301;86;21941;-73
2022/06/05 01:41:36;;;;;;;8.63;5.65;;;;;;;16.46;69.38;100564.88;1622497;86;21500;-73
2022/06/05 01:44:06;;;;;;;5.97;5.00;;;;;;;16.50;68.99;100563.19;1625507;86;21135;-73
2022/06/05 01:46:36;;;;;;;5.90;5.30;;;;;;;16.53;68.68;100563.94;1599139;88;21374;-73
2022/06/05 01:49:29;;;;;;;6.03;5.17;;;;;;;16.57;68.34;100569.54;1624817;86;22043;-73
2022/06/05 01:52:05;;;;;;;7.13;5.30;;;;;;;16.60;68.11;100571.09;1626418;86;22050;-73
2022/06/05 01:54:47;;;;;;;5.80;5.10;;;;;;;16.66;68.25;100573.16;1601669;85;22134;-72
2022/06/05 01:57:14;;;;;;;6.50;5.50;;;;;;;16.69;67.60;100567.73;1622827;86;21988;-73
2022/06/05 01:59:51;;;;;;;6.63;4.80;;;;;;;16.74;66.71;100575.70;1625928;85;21001;-72
2022/06/05 02:02:26;;;;;;;5.83;4.83;;;;;;;16.76;66.70;100576.25;1603480;86;21476;-72
2022/06/05 02:05:08;;;;;;;5.90;4.80;;;;;;;16.80;66.81;100570.51;1621794;86;21497;-72
2022/06/05 02:07:49;;;;;;;5.87;4.87;;;;;;;16.84;67.22;100569.60;1599382;88;21514;-72
2022/06/05 02:10:20;;;;;;;5.40;4.70;;;;;;;16.84;67.22;100569.60;1625113;86;21469;-73
2022/06/05 02:12:49;;;;;;;7.60;4.90;;;;;;;16.91;66.99;100557.62;1623566;86;21637;-73
2022/06/05 02:15:16;;;;;;;6.80;4.83;;;;;;;16.91;66.99;100557.62;1621763;85;21509;-73
2022/06/05 02:17:42;;;;;;;6.37;4.77;;;;;;;16.94;67.12;100557.82;1625130;86;21688;-73
2022/06/05 02:20:11;;;;;;;5.63;4.00;;;;;;;16.94;67.12;100557.82;1608443;88;21549;-73
2022/06/05 02:22:42;;;;;;;4.87;4.33;;;;;;;16.92;66.49;100555.98;1629350;86;21591;-72
2022/06/05 02:25:09;;;;;;;5.47;4.53;;;;;;;16.93;66.60;100548.14;1619373;86;21419;-73
2022/06/05 02:27:36;;;;;;;5.23;4.00;;;;;;;16.93;66.60;100548.14;1624594;86;21688;-73
2022/06/05 02:30:05;;;;;;;7.33;4.53;;;;;;;16.93;66.28;100544.64;1627785;86;21568;-73
2022/06/05 02:32:53;;;;;;;5.10;4.37;;;;;;;16.97;65.94;100538.89;1616400;86;22992;-73
2022/06/05 02:35:55;;;;;;;5.03;4.37;;;;;;;16.97;65.94;100538.89;1626803;86;21708;-73
2022/06/05 02:38:58;;;;;;;5.60;4.53;;;;;;;16.98;65.63;100527.81;1622377;86;21892;-73
2022/06/05 02:41:52;;;;;;;6.62;4.03;;;;;;;16.98;65.63;100527.81;1517179;90;21113;-72
2022/06/05 02:44:40;;;;;;;5.30;4.13;;;;;;;16.99;65.31;100523.21;1525535;92;21030;-73
2022/06/05 02:47:33;;;;;;;6.67;4.20;;;;;;;17.06;64.90;100531.70;1597628;86;21917;-72
2022/06/05 02:50:31;;;;;;;6.00;4.13;;;;;;;17.06;64.90;100531.70;1551977;91;22134;-72
2022/06/05 02:53:04;;;;;;;5.37;4.03;;;;;;;17.11;64.74;100533.75;1618811;86;21864;-72
2022/06/05 02:55:32;;;;;;;5.23;4.03;;;;;;;17.22;64.12;100534.33;1625697;86;21682;-72
2022/06/05 02:57:59;;;;;;;6.50;4.23;;;;;;;17.24;64.15;100528.09;1600759;87;21700;-73
2022/06/05 03:00:28;;;;;;;6.33;4.20;;;;;;;17.31;64.43;100527.12;1627199;86;22219;-73
2022/06/05 03:05:40;;;;;;;5.63;4.10;;;;;;;17.34;64.50;100521.13;1627618;86;21801;-73
2022/06/05 03:08:10;;;;;;;5.57;4.07;;;;;;;17.37;64.80;100518.34;1623089;86;22371;-72
2022/06/05 03:10:37;;;;;;;4.70;3.97;;;;;;;17.40;64.76;100520.44;1624799;86;21759;-73
2022/06/05 03:13:05;;;;;;;7.50;3.80;;;;;;;17.44;64.87;100515.23;1627610;86;21843;-73
2022/06/05 03:15:32;;;;;;;4.83;3.50;;;;;;;17.47;64.67;100518.67;1611293;88;21874;-72
2022/06/05 03:17:59;;;;;;;5.43;4.00;;;;;;;17.49;64.25;100519.98;1627332;86;21854;-73
2022/06/05 03:20:26;;;;;;;5.53;3.77;;;;;;;17.53;63.97;100518.27;1600656;88;22316;-73
2022/06/05 03:22:52;;;;;;;6.07;3.90;;;;;;;17.57;63.65;100517.09;1624295;86;21869;-73
2022/06/05 03:25:22;;;;;;;5.30;3.67;;;;;;;17.61;63.73;100516.76;1625453;86;21763;-73
2022/06/05 03:27:51;;;;;;;4.97;3.23;;;;;;;17.61;63.25;100511.91;1622721;86;21836;-73
2022/06/05 03:30:18;;;;;;;6.03;3.60;;;;;;;17.64;63.05;100516.16;1595975;88;21843;-73
2022/06/05 03:32:46;;;;;;;5.07;3.50;;;;;;;17.64;62.50;100511.31;1609500;87;21864;-74
2022/06/05 03:35:14;;;;;;;5.13;3.40;;;;;;;17.65;62.09;100510.19;1626392;86;21780;-74
2022/06/05 03:37:41;;;;;;;4.20;3.07;;;;;;;17.67;61.80;100512.84;1627899;86;21776;-72
2022/06/05 03:40:15;;;;;;;4.80;2.87;;;;;;;17.71;61.58;100514.38;1624266;86;21072;-74
2022/06/05 03:42:43;;;;;;;5.67;3.00;;;;;;;17.75;61.06;100506.70;1627545;85;21832;-72
2022/06/05 03:45:15;;;;;;;3.17;2.60;;;;;;;17.80;60.38;100511.20;1625006;86;22432;-72
2022/06/05 03:47:42;;;;;;;5.67;3.00;;;;;;;17.88;60.00;100512.39;1620492;86;21835;-73
2022/06/05 03:50:11;;;;;;;5.37;3.00;;;;;;;17.95;59.71;100512.75;1622742;86;21736;-74
2022/06/05 03:52:38;;;;;;;4.00;3.00;;;;;;;18.03;59.60;100523.64;1599632;87;21141;-73
2022/06/05 03:55:05;;;;;;;5.33;2.90;;;;;;;18.13;59.79;100527.17;1621412;86;21121;-73
2022/06/05 03:57:33;;;;;;;4.60;2.90;;;;;;;18.22;59.47;100522.06;1621624;86;21703;-73
2022/06/05 03:59:59;;;;;;;5.53;2.93;;;;;;;18.32;59.10;100516.95;1624751;86;21070;-73
2022/06/05 04:02:27;;;;;;;4.80;3.00;;;;;;;18.38;58.98;100519.78;1628450;86;21037;-73
2022/06/05 04:04:54;;;;;;;4.80;2.83;;;;;;;18.45;58.86;100523.39;1606952;88;21044;-73
2022/06/05 04:07:20;;;;;;;4.67;2.70;;;;;;;18.49;58.66;100524.36;1629937;86;21164;-71
2022/06/05 04:09:47;;;;;;;4.33;2.80;;;;;;;18.51;58.37;100521.59;1626283;85;21649;-72
2022/06/05 04:12:15;;;;;;;5.43;3.10;;;;;;;18.53;57.98;100517.24;1624817;86;21091;-72
2022/06/05 04:14:42;;;;;;;3.67;2.70;;;;;;;18.51;58.18;100516.74;1598861;87;21502;-72
2022/06/05 04:17:11;;;;;;;4.43;2.70;;;;;;;18.54;58.11;100518.03;1624791;86;21133;-72
2022/06/05 04:19:37;;;;;;;4.10;2.87;;;;;;;18.55;58.24;100520.41;1623849;86;21093;-72
2022/06/05 04:22:04;;;;;;;6.23;2.87;;;;;;;18.55;58.01;100515.56;1621508;86;21167;-72
2022/06/05 04:24:32;;;;;;;4.63;2.63;;;;;;;18.55;57.84;100517.71;1624435;86;21611;-73
2022/06/05 04:26:58;;;;;;;4.23;2.67;;;;;;;18.58;57.82;100514.95;1600198;87;21084;-72
2022/06/05 04:29:26;;;;;;;3.57;2.50;;;;;;;18.64;57.63;100517.20;1625081;86;21121;-74
2022/06/05 04:31:54;;;;;;;3.50;2.23;;;;;;;18.70;57.56;100521.92;1594624;88;21061;-72
2022/06/05 04:34:22;;;;;;;4.83;2.50;;;;;;;18.78;57.69;100521.18;1602214;87;21493;-73
2022/06/05 04:36:49;;;;;;;4.73;2.73;;;;;;;18.87;56.96;100532.84;1622937;86;21573;-73
2022/06/05 04:39:16;;;;;;;4.60;2.57;;;;;;;18.96;56.65;100536.38;1619229;86;21100;-73
2022/06/05 04:41:42;;;;;;;5.93;2.37;;;;;;;19.06;56.43;100533.95;1621353;86;21080;-73
2022/06/05 04:44:11;;;;;;;5.40;2.77;;;;;;;19.13;55.76;100535.63;1598846;87;21113;-73
2022/06/05 04:46:38;;;;;;;3.87;2.30;;;;;;;19.21;55.56;100538.11;1625072;86;21070;-71
2022/06/05 04:49:08;;;;;;;3.90;2.67;;;;;;;19.27;55.60;100536.84;1629781;86;21087;-72
2022/06/05 04:51:38;;;;;;;4.93;2.50;;;;;;;19.33;55.35;100544.28;1637744;86;21038;-72
2022/06/05 04:54:06;;;;;;;4.77;2.80;;;;;;;19.40;55.14;100553.52;1622484;86;21168;-73
2022/06/05 04:56:33;;;;;;;4.37;2.80;;;;;;;19.44;54.47;100564.52;1622570;86;21555;-73
2022/06/05 04:58:59;;;;;;;3.90;2.60;;;;;;;19.48;53.94;100571.45;1597008;87;21684;-73
2022/06/05 05:01:32;;;;;;;4.20;2.40;;;;;;;19.45;53.88;100564.22;1618212;86;21089;-72
2022/06/05 05:04:02;;;;;;;5.20;2.90;;;;;;;19.42;54.43;100571.63;1619178;86;21113;-74
2022/06/05 05:06:30;;;;;;;4.83;2.70;;;;;;;19.39;54.10;100571.45;1639858;86;21124;-72
2022/06/05 05:08:58;;;;;;;3.53;2.37;;;;;;;19.37;54.08;100580.44;1624537;86;21139;-73
2022/06/05 05:11:25;;;;;;;3.87;2.70;;;;;;;19.36;54.20;100581.56;1621584;86;21112;-73
2022/06/05 05:13:56;;;;;;;3.73;2.53;;;;;;;19.37;54.24;100579.09;1623277;86;21666;-73
2022/06/05 05:16:23;;;;;;;4.00;2.62;;;;;;;19.40;54.43;100579.25;1624445;86;21060;-74
2022/06/05 05:18:50;;;;;;;3.47;2.60;;;;;;;19.44;52.98;100572.08;1598487;88;21119;-72
2022/06/05 05:21:20;;;;;;;3.73;2.50;;;;;;;19.52;52.92;100577.86;1620465;86;21033;-74
2022/06/05 05:23:47;;;;;;;3.93;2.87;;;;;;;19.62;53.51;100577.55;1621911;85;21140;-72
2022/06/05 05:26:17;;;;;;;4.53;2.67;;;;;;;19.72;53.42;100584.05;1621578;87;21116;-73
2022/06/05 05:28:44;;;;;;;3.70;2.60;;;;;;;19.78;52.97;100580.63;1599478;88;21142;-72
2022/06/05 05:31:16;;;;;;;3.93;2.60;;;;;;;19.85;52.54;100578.23;1624562;86;21119;-73
2022/06/05 05:33:44;;;;;;;4.23;2.60;;;;;;;19.94;52.24;100579.58;1620887;86;21618;-73
2022/06/05 05:36:11;;;;;;;3.60;2.43;;;;;;;20.02;51.22;100576.87;1623985;86;21329;-73
2022/06/05 05:38:38;;;;;;;3.87;2.57;;;;;;;20.07;50.39;100569.13;1622275;86;21420;-71
2022/06/05 05:43:49;;;;;;;4.20;2.50;;;;;;;20.18;50.72;100574.47;1624633;86;21169;-73
2022/06/05 05:46:17;;;;;;;4.57;2.50;;;;;;;20.26;50.43;100573.65;1622995;86;21088;-74
2022/06/05 05:48:43;;;;;;;4.40;2.53;;;;;;;20.34;50.27;100576.92;1623225;86;22583;-74
2022/06/05 05:51:12;;;;;;;3.27;2.50;;;;;;;20.41;50.07;100575.64;1597374;88;21110;-73
2022/06/05 05:53:39;;;;;;;6.67;2.50;;;;;;;20.45;49.36;100577.94;1622925;85;21093;-73
2022/06/05 05:56:09;;;;;;;4.60;2.57;;;;;;;20.48;49.17;100588.14;1622579;86;22244;-73
2022/06/05 05:58:37;;;;;;;3.87;2.70;;;;;;;20.51;49.02;100592.95;1625509;86;21090;-72
2022/06/05 06:01:05;;;;;;;5.03;2.70;;;;;;;20.53;49.19;100600.20;1600668;88;21135;-73
2022/06/05 06:03:34;;;;;;;4.33;3.20;;;;;;;20.55;49.59;100604.19;1628694;86;21527;-73
2022/06/05 06:06:00;;;;;;;4.80;3.50;;;;;;;20.51;50.26;100603.81;1629984;86;21139;-72
2022/06/05 06:08:29;;;;;;;5.50;3.40;;;;;;;20.50;50.91;100609.77;1626755;86;22258;-73
2022/06/05 06:10:55;;;;;;;5.30;3.60;;;;;;;20.59;50.59;100600.27;1624884;86;22404;-73
2022/06/05 06:13:22;;;;;;;6.83;3.10;;;;;;;20.63;50.47;100593.63;1626736;86;21232;-72
2022/06/05 06:15:51;;;;;;;3.93;2.93;;;;;;;20.69;50.36;100589.63;1628061;86;21081;-73
2022/06/05 06:18:17;;;;;;;4.27;3.00;;;;;;;20.78;50.33;100589.84;1628524;86;21106;-72
2022/06/05 06:20:46;;;;;;;4.67;2.83;;;;;;;20.83;50.21;100589.67;1598976;88;21130;-73
2022/06/05 06:23:14;;;;;;;5.90;3.47;;;;;;;20.89;50.50;100579.97;1627310;86;21611;-73
2022/06/05 06:25:41;;;;;;;5.03;2.80;;;;;;;20.98;50.23;100586.96;1608367;88;21831;-73
2022/06/05 06:28:08;;;;;;;5.87;3.00;;;;;;;21.04;49.63;100576.72;1627354;86;21057;-73
2022/06/05 06:30:35;;;;;;;4.83;2.70;;;;;;;21.08;49.11;100570.87;1628046;86;21121;-72
2022/06/05 06:33:02;;;;;;;5.40;2.90;;;;;;;21.16;49.15;100572.76;1631894;86;21124;-73
2022/06/05 06:35:29;;;;;;;6.73;3.33;;;;;;;21.29;49.04;100576.36;1600270;88;21582;-72
2022/06/05 06:37:56;;;;;;;5.37;3.53;;;;;;;21.39;48.27;100573.30;1628397;88;21403;-73
2022/06/05 06:40:23;;;;;;;7.23;4.30;;;;;;;21.51;47.81;100573.92;1628829;86;21090;-73
2022/06/05 06:42:50;;;;;;;6.20;4.07;;;;;;;21.60;47.43;100574.66;1624802;88;21077;-73
2022/06/05 06:45:19;;;;;;;7.00;3.83;;;;;;;21.69;47.37;100580.84;1619005;87;21105;-72
2022/06/05 06:47:46;;;;;;;8.03;4.20;;;;;;;21.82;47.27;100580.92;1602276;88;20993;-73
2022/06/05 06:50:12;;;;;;;7.70;4.83;;;;;;;21.93;47.14;100590.25;1600779;88;21128;-73
2022/06/05 06:52:39;;;;;;;7.77;5.20;;;;;;;22.02;46.35;100593.70;1602066;87;21099;-73
2022/06/05 06:55:08;;;;;;;10.67;6.27;;;;;;;22.09;46.19;100595.31;1625714;86;22403;-72
2022/06/05 06:57:35;;;;;;;12.27;6.70;;;;;;;22.15;45.83;100595.38;1599218;86;20941;-73
2022/06/05 07:00:04;;;;;;;8.77;6.57;;;;;;;22.16;45.39;100596.16;1630253;86;20997;-72
2022/06/05 07:02:30;;;;;;;14.60;9.23;;;;;;;22.13;45.51;100601.67;1611842;87;21062;-71
2022/06/05 07:04:57;;;;;;;13.83;9.00;;;;;;;22.11;45.44;100607.20;1630521;86;21076;-73
2022/06/05 07:07:24;;;;;;;16.97;13.47;;;;;;;22.08;45.50;100595.09;1628521;86;21101;-72
2022/06/05 07:09:50;;;;;;;27.97;20.70;;;;;;;22.04;45.42;100595.50;1630781;86;21109;-72
2022/06/05 07:12:21;;;;;;;28.23;20.30;;;;;;;21.96;45.06;100586.30;1606124;88;21616;-73
2022/06/05 07:14:47;;;;;;;29.83;20.30;;;;;;;21.92;45.06;100582.66;1628951;86;21193;-72
2022/06/05 07:17:13;;;;;;;22.60;17.20;;;;;;;21.87;45.20;100584.20;1572550;88;21125;-73
2022/06/05 07:19:40;;;;;;;19.07;14.53;;;;;;;21.88;45.21;100584.46;1614449;86;21115;-73
2022/06/05 07:22:06;;;;;;;19.40;12.77;;;;;;;21.90;45.31;100582.75;1598584;88;21037;-73
2022/06/05 07:24:33;;;;;;;15.63;11.40;;;;;;;21.85;45.73;100587.84;1628618;88;21623;-73
2022/06/05 07:27:00;;;;;;;15.03;10.23;;;;;;;21.84;45.93;100588.16;1603594;87;21647;-73
2022/06/05 07:29:27;;;;;;;10.50;6.93;;;;;;;21.86;46.34;100588.63;1626241;86;21071;-73
2022/06/05 07:31:53;;;;;;;7.63;5.30;;;;;;;21.92;46.18;100584.59;1628694;86;21155;-72
2022/06/05 07:34:20;;;;;;;7.13;4.53;;;;;;;21.97;46.29;100587.88;1631272;86;21025;-73
2022/06/05 07:36:46;;;;;;;4.03;2.93;;;;;;;22.00;46.16;100583.70;1608452;88;21097;-73
2022/06/05 07:39:13;;;;;;;4.00;2.97;;;;;;;21.96;45.61;100583.58;1632270;86;21199;-73
2022/06/05 07:41:39;;;;;;;3.93;2.80;;;;;;;21.89;45.80;100587.41;1618083;87;21076;-73
2022/06/05 07:44:06;;;;;;;4.30;2.50;;;;;;;21.83;46.01;100585.22;1616578;87;21061;-73
2022/06/05 07:46:35;;;;;;;3.80;2.50;;;;;;;21.75;45.60;100584.95;1623916;86;21167;-73
2022/06/05 07:49:02;;;;;;;5.03;2.53;;;;;;;21.67;45.86;100580.36;1627356;86;21087;-74
2022/06/05 07:54:27;;;;;;;5.13;2.77;;;;;;;21.57;46.48;100582.12;1627190;86;21550;-73
2022/06/05 07:56:57;;;;;;;4.70;2.93;;;;;;;21.57;46.79;100594.91;1628482;86;21087;-72
2022/06/05 07:59:25;;;;;;;5.23;2.70;;;;;;;21.55;47.04;100583.00;1627863;86;21045;-73
2022/06/05 08:01:52;;;;;;;3.80;2.70;;;;;;;21.48;46.49;100592.24;1628607;88;21077;-73
2022/06/05 08:04:18;;;;;;;5.00;2.80;;;;;;;21.36;46.40;100584.82;1627474;86;21620;-73
2022/06/05 08:06:47;;;;;;;3.40;2.50;;;;;;;21.28;46.65;100589.13;1628461;86;21048;-73
2022/06/05 08:09:14;;;;;;;3.30;2.70;;;;;;;21.23;46.51;100587.97;1627163;86;21628;-73
2022/06/05 08:11:45;;;;;;;5.13;3.03;;;;;;;21.17;47.06;100585.77;1628451;86;21138;-73
2022/06/05 08:14:12;;;;;;;3.70;2.77;;;;;;;21.10;47.09;100589.00;1628002;86;20994;-72
2022/06/05 08:16:43;;;;;;;6.13;2.63;;;;;;;20.76;47.88;100588.02;1628313;86;21604;-73
2022/06/05 08:19:13;;;;;;;3.67;2.57;;;;;;;20.52;48.27;100596.69;1623457;86;21214;-72
2022/06/05 08:21:40;;;;;;;4.90;2.70;;;;;;;20.68;48.30;100590.19;1598117;88;21042;-73
2022/06/05 08:24:07;;;;;;;4.57;2.30;;;;;;;20.88;47.66;100587.89;1623357;86;21529;-73
2022/06/05 08:26:36;;;;;;;4.87;2.80;;;;;;;20.89;47.17;100600.34;1622491;86;21153;-72
2022/06/05 08:29:03;;;;;;;3.80;2.57;;;;;;;20.87;47.63;100599.87;1623068;85;21695;-72
2022/06/05 08:31:30;;;;;;;5.00;2.73;;;;;;;20.91;48.01;100599.46;1623267;85;21095;-72
2022/06/05 08:33:57;;;;;;;4.67;2.50;;;;;;;20.93;47.67;100593.95;1622706;86;21685;-72
2022/06/05 08:36:25;;;;;;;5.20;2.60;;;;;;;20.96;47.33;100591.12;1621137;86;21091;-72
2022/06/05 08:42:18;;;;;;;4.67;2.57;;;;;;;20.91;47.86;100597.54;1624865;86;22339;-73
2022/06/05 08:45:09;;;;;;;4.90;2.60;;;;;;;20.89;48.01;100592.98;1620469;86;21065;-72
2022/06/05 08:47:43;;;;;;;4.07;2.53;;;;;;;20.90;48.33;100587.02;1621327;86;21112;-73
2022/06/05 08:50:29;;;;;;;2.77;2.23;;;;;;;20.88;48.47;100579.75;1596542;88;21171;-73
2022/06/05 08:52:59;;;;;;;4.67;2.53;;;;;;;20.55;49.37;100584.40;1601853;88;21040;-74
2022/06/05 08:55:41;;;;;;;4.07;2.20;;;;;;;20.43;49.88;100576.89;1622155;85;21266;-73
2022/06/05 08:58:49;;;;;;;4.42;2.33;;;;;;;20.33;49.64;100574.52;1623126;86;21192;-73
2022/06/05 09:01:30;;;;;;;3.73;2.17;;;;;;;20.22;49.76;100568.64;1623277;86;21096;-74
2022/06/05 09:04:14;;;;;;;3.25;2.33;;;;;;;20.14;50.47;100574.88;1606117;86;21702;-73
2022/06/05 09:06:45;;;;;;;3.30;2.20;;;;;;;20.13;50.93;100578.12;1595921;88;21069;-72
2022/06/05 09:09:21;;;;;;;3.52;2.52;;;;;;;20.14;50.93;100586.52;1608600;87;21322;-71
2022/06/05 09:12:05;;;;;;;3.77;2.37;;;;;;;20.11;50.82;100601.28;1624510;86;21101;-78
2022/06/05 09:15:00;;;;;;;3.73;2.70;;;;;;;20.00;51.00;100606.20;1633842;85;21161;-76
2022/06/05 09:17:26;;;;;;;5.00;2.57;;;;;;;19.91;50.89;100598.09;1622750;86;21077;-72
2022/06/05 09:19:53;;;;;;;2.87;2.20;;;;;;;19.88;51.20;100610.13;1602408;89;21141;-72
2022/06/05 09:22:30;;;;;;;4.13;2.47;;;;;;;19.88;50.95;100606.06;1602719;89;21133;-73
2022/06/05 09:25:32;;;;;;;4.40;2.40;;;;;;;19.91;51.22;100613.00;1624558;87;21124;-72
2022/06/05 09:28:29;;;;;;;3.53;2.40;;;;;;;19.99;51.48;100613.31;1623331;86;21027;-73
2022/06/05 09:31:14;;;;;;;3.40;2.07;;;;;;;20.13;51.08;100623.44;1601169;88;21079;-73
2022/06/05 09:33:41;;;;;;;2.90;2.00;;;;;;;20.29;50.99;100625.11;1600564;88;21180;-73
2022/06/05 09:36:09;;;;;;;3.30;2.10;;;;;;;20.35;50.68;100633.32;1636139;86;21289;-73
2022/06/05 09:38:57;;;;;;;3.13;2.07;;;;;;;20.38;50.39;100627.26;1642696;85;21111;-73
2022/06/05 09:41:59;;;;;;;3.13;2.10;;;;;;;20.39;50.48;100629.63;1631018;86;21049;-74
2022/06/05 09:44:37;;;;;;;5.73;2.00;;;;;;;20.43;50.32;100631.70;1602558;88;21603;-73
2022/06/05 09:47:15;;;;;;;3.43;1.80;;;;;;;20.43;50.61;100631.70;1626692;86;21492;-73
2022/06/05 09:49:51;;;;;;;4.03;1.90;;;;;;;20.43;50.30;100631.70;1639074;87;21258;-72
2022/06/05 09:52:22;;;;;;;3.60;1.97;;;;;;;20.38;50.24;100635.39;1634675;86;21029;-72
2022/06/05 09:55:21;;;;;;;5.40;2.17;;;;;;;20.42;49.98;100634.19;1648831;85;21080;-72
2022/06/05 09:58:31;;;;;;;4.10;2.07;;;;;;;20.29;50.56;100634.60;1578445;91;21110;-72
2022/06/05 10:01:00;;;;;;;2.60;1.70;;;;;;;20.38;50.19;100632.68;1626618;86;21022;-73
2022/06/05 10:03:42;;;;;;;3.00;1.83;;;;;;;20.22;50.43;100636.44;1595924;88;21149;-72
2022/06/05 10:06:36;;;;;;;2.83;1.80;;;;;;;20.28;50.35;100633.80;1620557;86;21096;-73
2022/06/05 10:09:08;;;;;;;2.80;1.90;;;;;;;20.26;50.35;100633.31;1602270;88;21099;-72
2022/06/05 10:11:57;;;;;;;4.50;2.00;;;;;;;20.13;50.89;100626.14;1602701;88;21591;-73
2022/06/05 10:15:03;;;;;;;3.43;2.00;;;;;;;20.14;51.50;100625.05;1626580;86;21100;-73
2022/06/05 10:17:53;;;;;;;3.67;1.93;;;;;;;20.18;51.57;100626.00;1620949;86;21265;-73
2022/06/05 10:20:46;;;;;;;4.20;2.00;;;;;;;20.30;51.55;100619.91;1622770;86;21073;-72
2022/06/05 10:23:33;;;;;;;3.50;1.97;;;;;;;20.39;51.38;100622.06;1602177;88;21664;-73
2022/06/05 10:26:15;;;;;;;3.60;1.80;;;;;;;20.44;51.62;100621.11;1605300;87;21016;-72
2022/06/05 10:28:45;;;;;;;4.77;2.00;;;;;;;20.53;51.24;100620.55;1627461;87;21087;-73
2022/06/05 10:31:27;;;;;;;3.53;2.10;;;;;;;20.56;50.80;100615.83;1601468;88;21619;-73
2022/06/05 10:34:17;;;;;;;2.77;1.97;;;;;;;20.61;50.79;100624.61;1632871;86;20981;-72
2022/06/05 10:37:26;;;;;;;3.83;2.07;;;;;;;20.78;50.83;100621.05;1630765;88;21093;-74
2022/06/05 10:40:06;;;;;;;4.23;2.17;;;;;;;20.94;50.43;100628.11;1613548;86;21042;-72
2022/06/05 10:42:52;;;;;;;2.60;2.00;;;;;;;21.07;50.51;100622.23;1601193;88;21076;-73
2022/06/05 10:45:30;;;;;;;3.47;2.03;;;;;;;21.24;50.07;100626.23;1653548;85;21788;-73
2022/06/05 10:48:14;;;;;;;3.17;2.10;;;;;;;21.61;49.65;100631.17;1651876;85;21106;-74
2022/06/05 10:51:01;;;;;;;2.83;1.77;;;;;;;21.82;48.87;100628.50;1641074;85;20994;-73
2022/06/05 10:53:46;;;;;;;3.03;2.10;;;;;;;21.97;47.92;100624.59;1616485;86;21095;-73
2022/06/05 10:56:53;;;;;;;4.93;1.70;;;;;;;21.93;47.74;100628.33;1622108;87;21152;-73
2022/06/05 10:59:38;;;;;;;4.77;2.37;;;;;;;21.94;47.92;100625.83;1587329;88;21047;-72
2022/06/05 11:02:43;;;;;;;2.77;2.00;;;;;;;22.20;47.38;100631.09;1658177;85;21046;-74
2022/06/05 11:05:44;;;;;;;3.57;2.03;;;;;;;22.35;47.00;100635.13;1625626;86;21491;-73
2022/06/05 11:08:51;;;;;;;3.13;2.30;;;;;;;22.50;46.62;100635.84;1628502;88;21415;-73
2022/06/05 11:15:00;;;;;;;3.17;2.00;;;;;;;22.60;46.11;100636.78;1601032;88;21866;-73
2022/06/05 11:17:32;;;;;;;2.83;1.90;;;;;;;22.59;45.58;100635.20;1598133;88;21131;-73
2022/06/05 11:20:07;;;;;;;2.60;1.97;;;;;;;22.65;46.26;100631.70;1627168;86;21197;-73
2022/06/05 11:22:36;;;;;;;4.97;2.10;;;;;;;22.77;45.51;100633.64;1624685;86;21132;-74
2022/06/05 11:25:25;;;;;;;4.10;2.10;;;;;;;22.81;45.56;100634.59;1625760;85;21100;-73
2022/06/05 11:28:18;;;;;;;3.58;2.20;;;;;;;22.90;45.94;100637.98;1651133;85;21257;-73
2022/06/05 11:31:28;;;;;;;3.35;2.20;;;;;;;22.97;45.27;100627.37;1649272;85;21519;-73
2022/06/05 11:34:01;;;;;;;3.20;2.25;;;;;;;22.96;44.33;100630.42;1649036;85;21030;-73
2022/06/05 11:36:44;;;;;;;2.83;1.90;;;;;;;22.99;44.95;100630.54;1634578;85;21558;-73
2022/06/05 11:39:16;;;;;;;2.93;2.30;;;;;;;23.07;44.35;100631.59;1608767;86;20982;-72
2022/06/05 11:42:20;;;;;;;3.40;2.23;;;;;;;23.09;44.22;100634.75;1603912;87;22520;-73
2022/06/05 11:45:31;;;;;;;3.83;2.00;;;;;;;23.14;44.60;100629.09;1630946;86;21628;-73
2022/06/05 11:48:18;;;;;;;4.90;2.00;;;;;;;23.27;43.63;100633.98;1405002;85;10000241;-72
2022/06/05 11:50:50;;;;;;;2.90;2.00;;;;;;;23.27;43.46;100627.17;1625361;88;22365;-73
2022/06/05 11:53:32;;;;;;;3.57;2.10;;;;;;;23.32;43.84;100628.28;1607684;88;21044;-74
2022/06/05 11:56:32;;;;;;;3.00;1.93;;;;;;;23.78;43.00;100624.85;1628661;86;21180;-73
2022/06/05 11:59:16;;;;;;;3.73;2.07;;;;;;;24.01;42.31;100625.92;1626390;86;21136;-73
2022/06/05 12:01:50;;;;;;;3.30;1.80;;;;;;;24.26;41.90;100623.91;1628156;86;21644;-74
2022/06/05 12:04:31;;;;;;;3.00;1.80;;;;;;;24.45;40.77;100626.02;1606356;87;21088;-73
2022/06/05 12:06:59;;;;;;;;;;;;;;;24.59;40.40;100624.23;1624157;88;21188;-71
2022/06/05 12:09:29;;;;;;;3.63;2.00;;;;;;;24.72;39.57;100627.11;1603729;88;20558;-73
2022/06/05 12:12:13;;;;;;;3.63;1.93;;;;;;;24.76;39.68;100635.39;1628642;86;21063;-72
2022/06/05 12:15:00;;;;;;;3.80;2.03;;;;;;;24.87;39.29;100628.83;1603887;88;21612;-72
2022/06/05 12:17:38;;;;;;;3.80;1.80;;;;;;;25.00;38.93;100629.75;1628587;87;21108;-72